createdAt,value
2023-03-21T00:09:29.468Z,7.21
2023-03-21T00:19:38.597Z,7.06
2023-03-21T00:29:44.442Z,6.95
2023-03-21T00:39:51.955Z,6.87
2023-03-21T00:49:57.700Z,6.81
2023-03-21T01:00:04.246Z,6.75
2023-03-21T01:10:11.867Z,6.67
2023-03-21T01:20:17.592Z,6.63
2023-03-21T01:30:24.864Z,6.57
2023-03-21T01:40:29.183Z,6.54
2023-03-21T01:50:35.187Z,6.53
2023-03-21T02:00:41.619Z,6.54
2023-03-21T02:10:50.673Z,6.45
2023-03-21T02:21:25.662Z,6.37
2023-03-21T02:31:48.996Z,6.37
2023-03-21T02:42:02.753Z,6.38
2023-03-21T02:52:18.692Z,6.35
2023-03-21T03:02:31.213Z,6.26
2023-03-21T03:12:47.021Z,6.19
2023-03-21T03:22:58.981Z,6.14
2023-03-21T03:33:07.675Z,6.06
2023-03-21T03:43:17.253Z,6.02
2023-03-21T03:53:29.595Z,6.01
2023-03-21T04:03:48.406Z,5.99
2023-03-21T04:13:54.551Z,5.93
2023-03-21T04:24:00.462Z,5.89
2023-03-21T04:34:10.033Z,5.94
2023-03-21T04:44:18.103Z,6.00
2023-03-21T04:54:24.280Z,6.07
2023-03-21T05:04:31.227Z,6.11
2023-03-21T05:14:37.002Z,6.13
2023-03-21T05:24:42.772Z,6.13
2023-03-21T05:34:48.602Z,6.19
2023-03-21T05:44:54.713Z,6.24
2023-03-21T05:55:00.759Z,6.36
2023-03-21T06:05:07.342Z,6.56
2023-03-21T06:15:14.038Z,6.73
2023-03-21T06:25:19.910Z,6.88
2023-03-21T06:35:25.543Z,7.21
2023-03-21T06:45:31.383Z,7.68
2023-03-21T06:55:37.401Z,7.88
2023-03-21T07:05:43.929Z,7.72
2023-03-21T07:15:49.821Z,7.73
2023-03-21T07:25:56.334Z,7.74
2023-03-21T07:36:03.428Z,7.73
2023-03-21T07:46:09.659Z,7.91
2023-03-21T07:56:16.001Z,8.38
2023-03-21T08:06:21.837Z,8.22
2023-03-21T08:16:27.986Z,8.41
2023-03-21T08:26:34.561Z,8.59
2023-03-21T08:36:40.611Z,8.39
2023-03-21T08:46:46.341Z,8.87
2023-03-21T08:56:52.569Z,9.35
2023-03-21T09:07:01.520Z,9.57
2023-03-21T09:17:07.237Z,9.42
2023-03-21T09:27:14.094Z,9.64
2023-03-21T09:37:21.423Z,9.21
2023-03-21T09:47:34.860Z,9.72
2023-03-21T09:57:45.056Z,9.47
2023-03-21T10:07:56.065Z,9.42
2023-03-21T10:18:06.126Z,8.83
2023-03-21T10:28:18.310Z,8.62
2023-03-21T10:38:27.116Z,8.46
2023-03-21T10:48:39.021Z,8.52
2023-03-21T10:58:48.100Z,8.38
2023-03-21T11:08:57.981Z,9.05
2023-03-21T11:19:13.468Z,9.85
2023-03-21T11:29:35.500Z,10.17
2023-03-21T11:39:47.405Z,9.85
2023-03-21T11:49:58.347Z,9.60
2023-03-21T12:00:20.862Z,9.47
2023-03-21T12:10:44.534Z,9.45
2023-03-21T12:20:55.324Z,9.77
2023-03-21T12:31:07.505Z,10.20
2023-03-21T12:41:27.475Z,10.52
2023-03-21T12:51:37.803Z,11.06
2023-03-21T13:01:47.188Z,11.58
2023-03-21T13:11:57.368Z,11.10
2023-03-21T13:22:12.633Z,11.04
2023-03-21T13:32:29.245Z,10.86
2023-03-21T13:42:36.572Z,10.34
2023-03-21T13:52:42.246Z,10.12
2023-03-21T14:02:58.607Z,9.72
2023-03-21T14:13:06.882Z,9.34
2023-03-21T14:23:17.261Z,9.26
2023-03-21T14:33:27.505Z,9.30
2023-03-21T14:43:34.392Z,9.66
2023-03-21T14:53:43.748Z,9.96
2023-03-21T15:03:51.478Z,10.18
2023-03-21T15:13:56.587Z,10.44
2023-03-21T15:24:08.519Z,10.31
2023-03-21T15:34:22.629Z,10.01
2023-03-21T15:44:29.023Z,9.63
2023-03-21T15:54:40.332Z,9.28
2023-03-21T16:05:01.149Z,8.99
2023-03-21T16:15:08.808Z,8.71
2023-03-21T16:25:13.079Z,8.38
2023-03-21T16:35:22.389Z,8.04
2023-03-21T16:45:30.573Z,7.72
2023-03-21T16:55:38.845Z,7.32
2023-03-21T17:05:44.749Z,6.92
2023-03-21T17:15:50.388Z,6.50
2023-03-21T17:25:56.152Z,6.07
2023-03-21T17:36:02.193Z,5.66
2023-03-21T17:46:11.183Z,5.31
2023-03-21T17:56:21.175Z,5.04
2023-03-21T18:06:28.122Z,4.74
2023-03-21T18:16:34.116Z,4.51
2023-03-21T18:26:40.080Z,4.28
2023-03-21T18:36:45.960Z,4.04
2023-03-21T18:46:51.758Z,3.80
2023-03-21T18:57:33.868Z,3.57
2023-03-21T19:07:25.051Z,3.34
2023-03-21T19:27:57.326Z,3.19
2023-03-21T19:38:03.767Z,3.10
2023-03-21T19:48:09.895Z,2.91
2023-03-21T19:58:16.333Z,2.68
2023-03-21T20:08:22.317Z,2.55
2023-03-21T20:18:28.058Z,2.38
2023-03-21T20:28:34.598Z,2.23
2023-03-21T20:38:40.969Z,2.30
2023-03-21T20:48:48.903Z,2.23
2023-03-21T20:59:08.339Z,2.08
2023-03-21T21:09:20.905Z,2.14
2023-03-21T21:19:27.090Z,2.21
2023-03-21T21:29:32.832Z,2.15
2023-03-21T21:39:40.286Z,2.23
2023-03-21T21:49:46.060Z,2.22
2023-03-21T21:59:54.401Z,2.26
2023-03-21T22:10:00.305Z,2.23
2023-03-21T22:20:09.072Z,2.23
2023-03-21T22:30:18.646Z,2.06
2023-03-21T22:40:24.606Z,1.89
2023-03-21T22:50:30.727Z,1.83
2023-03-21T23:00:36.864Z,1.79
2023-03-21T23:10:46.017Z,1.75
2023-03-21T23:20:53.630Z,1.82
2023-03-21T23:30:59.455Z,1.86
2023-03-21T23:41:09.662Z,1.79
2023-03-21T23:51:17.372Z,1.69
